Time;durP1;ratioP1;P1;durP2;ratioP2;P2;SDS_P1;SDS_P2;PMS_P1;PMS_P2;Temp;Humidity;BMP_temperature;BMP_pressure;BME280_temperature;BME280_humidity;BME280_pressure;Samples;Min_cycle;Max_cycle;Signal;HPM_P1;HPM_P2
2023/11/25 00:02:14;;;;;;;;;;;;;;;;;;4995314;28;19925;-78
2023/11/25 00:04:42;;;;;;;;;;;;;;;;;;4990722;28;19993;-79
2023/11/25 00:07:09;;;;;;;;;;;;;;;;;;4976151;28;19938;-78
2023/11/25 00:09:36;;;;;;;;;;;;;;;;;;4981525;28;19941;-79
2023/11/25 00:12:03;;;;;;;;;;;;;;;;;;4994877;28;20412;-75
2023/11/25 00:14:30;;;;;;;;;;;;;;;;;;4996287;28;19932;-78
2023/11/25 00:16:57;;;;;;;;;;;;;;;;;;5008644;28;20428;-76
2023/11/25 00:19:25;;;;;;;;;;;;;;;;;;4993035;28;19926;-76
2023/11/25 00:21:52;;;;;;;;;;;;;;;;;;4989581;28;20377;-76
2023/11/25 00:24:19;;;;;;;;;;;;;;;;;;4977292;28;20340;-77
2023/11/25 00:26:46;;;;;;;;;;;;;;;;;;4993387;28;20404;-75
2023/11/25 00:29:15;;;;;;;;;;;;;;;;;;4994002;28;20388;-78
2023/11/25 00:31:43;;;;;;;;;;;;;;;;;;4994727;28;19932;-78
2023/11/25 00:34:10;;;;;;;;;;;;;;;;;;5010310;28;19929;-78
2023/11/25 00:36:37;;;;;;;;;;;;;;;;;;4994537;28;20359;-78
2023/11/25 00:39:06;;;;;;;;;;;;;;;;;;4987874;28;19930;-77
2023/11/25 00:41:33;;;;;;;;;;;;;;;;;;4974935;28;20350;-76
2023/11/25 00:44:03;;;;;;;;;;;;;;;;;;4979327;28;19980;-78
2023/11/25 00:46:30;;;;;;;;;;;;;;;;;;4989312;28;19930;-78
2023/11/25 00:48:58;;;;;;;;;;;;;;;;;;4993992;28;19926;-77
2023/11/25 00:51:25;;;;;;;;;;;;;;;;;;4993433;28;19934;-77
2023/11/25 00:53:52;;;;;;;;;;;;;;;;;;4993406;28;20342;-78
2023/11/25 00:56:20;;;;;;;;;;;;;;;;;;4990528;28;19957;-77
2023/11/25 00:58:47;;;;;;;;;;;;;;;;;;4993204;28;20019;-77
2023/11/25 01:01:14;;;;;;;;;;;;;;;;;;4993646;28;19929;-77
2023/11/25 01:03:41;;;;;;;;;;;;;;;;;;4990953;28;19926;-78
2023/11/25 01:06:08;;;;;;;;;;;;;;;;;;4992740;28;19961;-78
2023/11/25 01:08:36;;;;;;;;;;;;;;;;;;4993357;28;19980;-77
2023/11/25 01:11:05;;;;;;;;;;;;;;;;;;4990640;28;19925;-75
2023/11/25 01:13:32;;;;;;;;;;;;;;;;;;4985234;28;19977;-76
2023/11/25 01:16:00;;;;;;;;;;;;;;;;;;4992953;28;19972;-77
2023/11/25 01:18:27;;;;;;;;;;;;;;;;;;4993213;28;20348;-76
2023/11/25 01:20:57;;;;;;;;;;;;;;;;;;5003329;28;19989;-76
2023/11/25 01:23:25;;;;;;;;;;;;;;;;;;5004820;28;19925;-76
2023/11/25 01:25:52;;;;;;;;;;;;;;;;;;4992979;28;20391;-75
2023/11/25 01:28:19;;;;;;;;;;;;;;;;;;4993171;28;20024;-75
2023/11/25 01:30:49;;;;;;;;;;;;;;;;;;4990173;28;19926;-76
2023/11/25 01:33:16;;;;;;;;;;;;;;;;;;4993484;28;19968;-76
2023/11/25 01:35:45;;;;;;;;;;;;;;;;;;4996687;28;19974;-75
2023/11/25 01:38:18;;;;;;;;;;;;;;;;;;5001235;28;19930;-77
2023/11/25 01:40:45;;;;;;;;;;;;;;;;;;4989289;28;20005;-76
2023/11/25 01:43:14;;;;;;;;;;;;;;;;;;4991791;28;19930;-76
2023/11/25 01:45:42;;;;;;;;;;;;;;;;;;5006111;28;19925;-76
2023/11/25 01:48:09;;;;;;;;;;;;;;;;;;4982531;28;19933;-76
2023/11/25 01:50:38;;;;;;;;;;;;;;;;;;4987756;28;19973;-76
2023/11/25 01:53:05;;;;;;;;;;;;;;;;;;4992722;28;20377;-75
2023/11/25 01:55:32;;;;;;;;;;;;;;;;;;4992974;28;19937;-76
2023/11/25 01:58:00;;;;;;;;;;;;;;;;;;4991869;28;19925;-76
2023/11/25 02:00:28;;;;;;;;;;;;;;;;;;4995641;28;19948;-77
2023/11/25 02:02:55;;;;;;;;;;;;;;;;;;4992764;28;19926;-75
2023/11/25 02:05:22;;;;;;;;;;;;;;;;;;4985694;28;19930;-77
2023/11/25 02:07:49;;;;;;;;;;;;;;;;;;4992041;28;20300;-76
2023/11/25 02:10:16;;;;;;;;;;;;;;;;;;4992920;28;20024;-77
2023/11/25 02:12:46;;;;;;;;;;;;;;;;;;4994286;28;20447;-75
2023/11/25 02:15:14;;;;;;;;;;;;;;;;;;4996253;28;19969;-76
2023/11/25 02:17:41;;;;;;;;;;;;;;;;;;4997791;28;19952;-76
2023/11/25 02:20:10;;;;;;;;;;;;;;;;;;5007955;28;19933;-76
2023/11/25 02:22:37;;;;;;;;;;;;;;;;;;4986565;28;19996;-75
2023/11/25 02:25:04;;;;;;;;;;;;;;;;;;4991029;28;20017;-77
2023/11/25 02:27:31;;;;;;;;;;;;;;;;;;4992602;28;19926;-76
2023/11/25 02:30:00;;;;;;;;;;;;;;;;;;4987447;28;19934;-76
2023/11/25 02:32:27;;;;;;;;;;;;;;;;;;4991828;28;19925;-74
2023/11/25 02:34:54;;;;;;;;;;;;;;;;;;4991929;28;19925;-77
2023/11/25 02:37:22;;;;;;;;;;;;;;;;;;4991723;28;19984;-77
2023/11/25 02:39:49;;;;;;;;;;;;;;;;;;4973178;28;19933;-79
2023/11/25 02:42:17;;;;;;;;;;;;;;;;;;4995647;28;19961;-79
2023/11/25 02:44:44;;;;;;;;;;;;;;;;;;4994840;28;19926;-77
2023/11/25 02:47:11;;;;;;;;;;;;;;;;;;4998738;28;19933;-76
2023/11/25 02:49:38;;;;;;;;;;;;;;;;;;5015683;28;19925;-76
2023/11/25 02:52:05;;;;;;;;;;;;;;;;;;4995919;28;19980;-75
2023/11/25 02:54:32;;;;;;;;;;;;;;;;;;4993457;28;20296;-74
2023/11/25 02:57:00;;;;;;;;;;;;;;;;;;4976689;28;19981;-77
2023/11/25 02:59:27;;;;;;;;;;;;;;;;;;4984090;28;20395;-75
2023/11/25 03:01:54;;;;;;;;;;;;;;;;;;4995523;28;20001;-77
2023/11/25 03:04:23;;;;;;;;;;;;;;;;;;4996458;28;20365;-76
2023/11/25 03:06:51;;;;;;;;;;;;;;;;;;4995003;28;19926;-77
2023/11/25 03:09:18;;;;;;;;;;;;;;;;;;4995316;28;19965;-75
2023/11/25 03:11:45;;;;;;;;;;;;;;;;;;4994670;28;20024;-77
2023/11/25 03:14:15;;;;;;;;;;;;;;;;;;4993665;28;19972;-76
2023/11/25 03:16:42;;;;;;;;;;;;;;;;;;4994785;28;20004;-75
2023/11/25 03:19:10;;;;;;;;;;;;;;;;;;4995078;28;19929;-77
2023/11/25 03:21:37;;;;;;;;;;;;;;;;;;5000448;28;20293;-78
2023/11/25 03:24:07;;;;;;;;;;;;;;;;;;5000473;28;20415;-77
2023/11/25 03:26:34;;;;;;;;;;;;;;;;;;4995005;28;19925;-76
2023/11/25 03:29:02;;;;;;;;;;;;;;;;;;4991332;28;19933;-77
2023/11/25 03:31:29;;;;;;;;;;;;;;;;;;4994977;28;19926;-76
2023/11/25 03:33:56;;;;;;;;;;;;;;;;;;4992912;28;19972;-76
2023/11/25 03:36:23;;;;;;;;;;;;;;;;;;4994981;28;19977;-78
2023/11/25 03:38:51;;;;;;;;;;;;;;;;;;4994622;28;19934;-78
2023/11/25 03:41:19;;;;;;;;;;;;;;;;;;5007109;28;19930;-75
2023/11/25 03:43:46;;;;;;;;;;;;;;;;;;4992583;28;19961;-73
2023/11/25 03:46:14;;;;;;;;;;;;;;;;;;4985785;28;19934;-72
2023/11/25 03:48:41;;;;;;;;;;;;;;;;;;4989635;28;20365;-73
2023/11/25 03:51:08;;;;;;;;;;;;;;;;;;4993873;28;19926;-71
2023/11/25 03:53:36;;;;;;;;;;;;;;;;;;4992766;28;19929;-72
2023/11/25 03:56:03;;;;;;;;;;;;;;;;;;4992062;28;19930;-71
2023/11/25 03:58:30;;;;;;;;;;;;;;;;;;4991214;28;19926;-72
2023/11/25 04:00:57;;;;;;;;;;;;;;;;;;4993750;28;19926;-71
2023/11/25 04:03:25;;;;;;;;;;;;;;;;;;4992001;28;19925;-72
2023/11/25 04:05:54;;;;;;;;;;;;;;;;;;4991837;28;20210;-73
2023/11/25 04:08:21;;;;;;;;;;;;;;;;;;4992113;28;19977;-72
2023/11/25 04:10:48;;;;;;;;;;;;;;;;;;4993568;28;20408;-73
2023/11/25 04:13:15;;;;;;;;;;;;;;;;;;4995118;28;19930;-74
2023/11/25 04:15:42;;;;;;;;;;;;;;;;;;4990751;28;19932;-73
2023/11/25 04:18:09;;;;;;;;;;;;;;;;;;4989109;28;20032;-74
2023/11/25 04:20:36;;;;;;;;;;;;;;;;;;4990736;28;20467;-74
2023/11/25 04:23:06;;;;;;;;;;;;;;;;;;4989648;28;19926;-73
2023/11/25 04:25:33;;;;;;;;;;;;;;;;;;4989916;28;19937;-74
2023/11/25 04:28:00;;;;;;;;;;;;;;;;;;4993050;28;19926;-75
2023/11/25 04:30:28;;;;;;;;;;;;;;;;;;4991690;28;19930;-74
2023/11/25 04:32:55;;;;;;;;;;;;;;;;;;4993101;28;19932;-74
2023/11/25 04:35:22;;;;;;;;;;;;;;;;;;4992894;28;19930;-72
2023/11/25 04:37:49;;;;;;;;;;;;;;;;;;4989840;28;20029;-72
2023/11/25 04:40:18;;;;;;;;;;;;;;;;;;4992261;28;19941;-74
2023/11/25 04:42:45;;;;;;;;;;;;;;;;;;4995172;28;20021;-73
2023/11/25 04:45:15;;;;;;;;;;;;;;;;;;4983239;28;19965;-73
2023/11/25 04:47:43;;;;;;;;;;;;;;;;;;4991112;28;19961;-73
2023/11/25 04:50:10;;;;;;;;;;;;;;;;;;4993549;28;20008;-71
2023/11/25 04:52:37;;;;;;;;;;;;;;;;;;4992503;28;19925;-72
2023/11/25 04:55:04;;;;;;;;;;;;;;;;;;4991304;28;19996;-72
2023/11/25 04:57:32;;;;;;;;;;;;;;;;;;4993393;28;19926;-72
2023/11/25 04:59:59;;;;;;;;;;;;;;;;;;4997319;28;19926;-73
2023/11/25 05:02:26;;;;;;;;;;;;;;;;;;4992154;28;20021;-74
2023/11/25 05:04:53;;;;;;;;;;;;;;;;;;4990446;28;19932;-74
2023/11/25 05:07:21;;;;;;;;;;;;;;;;;;4992566;28;19925;-74
2023/11/25 05:09:56;;;;;;;;;;;;;;;;;;4992453;28;19980;-74
2023/11/25 05:12:26;;;;;;;;;;;;;;;;;;4977605;28;19926;-76
2023/11/25 05:14:53;;;;;;;;;;;;;;;;;;4992499;28;20008;-73
2023/11/25 05:17:22;;;;;;;;;;;;;;;;;;4994290;28;20016;-73
2023/11/25 05:19:49;;;;;;;;;;;;;;;;;;4993117;28;20286;-73
2023/11/25 05:22:16;;;;;;;;;;;;;;;;;;4991589;28;19926;-73
2023/11/25 05:24:44;;;;;;;;;;;;;;;;;;4991430;28;19953;-73
2023/11/25 05:27:12;;;;;;;;;;;;;;;;;;4992469;28;19925;-72
2023/11/25 05:29:39;;;;;;;;;;;;;;;;;;4997948;28;20020;-72
2023/11/25 05:32:07;;;;;;;;;;;;;;;;;;4992756;28;19969;-72
2023/11/25 05:34:35;;;;;;;;;;;;;;;;;;4989558;28;19976;-72
2023/11/25 05:37:03;;;;;;;;;;;;;;;;;;4992163;28;20300;-73
2023/11/25 05:39:30;;;;;;;;;;;;;;;;;;4990586;28;19932;-73
2023/11/25 05:41:57;;;;;;;;;;;;;;;;;;4988791;28;20012;-75
2023/11/25 05:44:25;;;;;;;;;;;;;;;;;;4989866;28;19926;-73
2023/11/25 05:46:52;;;;;;;;;;;;;;;;;;5002134;28;20048;-74
2023/11/25 05:49:19;;;;;;;;;;;;;;;;;;4994113;28;20032;-73
2023/11/25 05:51:46;;;;;;;;;;;;;;;;;;4992840;28;19926;-73
2023/11/25 05:54:13;;;;;;;;;;;;;;;;;;4990984;28;20303;-72
2023/11/25 05:56:40;;;;;;;;;;;;;;;;;;5009500;28;19929;-72
2023/11/25 05:59:09;;;;;;;;;;;;;;;;;;4994459;28;19932;-72
2023/11/25 06:01:36;;;;;;;;;;;;;;;;;;4991013;28;19926;-71
2023/11/25 06:04:03;;;;;;;;;;;;;;;;;;4986277;28;19926;-73
2023/11/25 06:06:30;;;;;;;;;;;;;;;;;;4992346;28;19949;-71
2023/11/25 06:08:57;;;;;;;;;;;;;;;;;;4992146;28;19926;-72
2023/11/25 06:11:26;;;;;;;;;;;;;;;;;;4991422;28;19925;-72
2023/11/25 06:13:54;;;;;;;;;;;;;;;;;;4990388;28;19929;-72
2023/11/25 06:16:24;;;;;;;;;;;;;;;;;;4993913;28;20020;-72
2023/11/25 06:18:51;;;;;;;;;;;;;;;;;;4991454;28;19926;-72
2023/11/25 06:21:19;;;;;;;;;;;;;;;;;;4981573;28;19926;-70
2023/11/25 06:23:46;;;;;;;;;;;;;;;;;;4991720;28;20284;-71
2023/11/25 06:26:14;;;;;;;;;;;;;;;;;;4994481;28;20005;-72
2023/11/25 06:28:41;;;;;;;;;;;;;;;;;;4994112;28;19948;-73
2023/11/25 06:31:08;;;;;;;;;;;;;;;;;;4994905;28;19930;-68
2023/11/25 06:33:35;;;;;;;;;;;;;;;;;;4995322;28;20487;-69
2023/11/25 06:36:02;;;;;;;;;;;;;;;;;;4998485;28;20017;-70
2023/11/25 06:38:29;;;;;;;;;;;;;;;;;;4995026;28;19926;-70
2023/11/25 06:40:56;;;;;;;;;;;;;;;;;;4994022;28;19965;-70
2023/11/25 06:43:24;;;;;;;;;;;;;;;;;;4994952;28;19925;-72
2023/11/25 06:45:51;;;;;;;;;;;;;;;;;;4993340;28;20388;-73
2023/11/25 06:48:19;;;;;;;;;;;;;;;;;;4991408;28;19933;-71
2023/11/25 06:50:46;;;;;;;;;;;;;;;;;;4976238;28;19938;-71
2023/11/25 06:53:13;;;;;;;;;;;;;;;;;;4995895;28;20377;-72
2023/11/25 06:55:41;;;;;;;;;;;;;;;;;;4991878;28;19926;-71
2023/11/25 06:58:08;;;;;;;;;;;;;;;;;;5001006;28;19968;-71
2023/11/25 07:00:37;;;;;;;;;;;;;;;;;;5009859;28;20032;-72
2023/11/25 07:03:04;;;;;;;;;;;;;;;;;;4994302;28;20460;-74
2023/11/25 07:05:31;;;;;;;;;;;;;;;;;;4981462;28;19925;-74
2023/11/25 07:07:58;;;;;;;;;;;;;;;;;;4986473;28;20010;-73
2023/11/25 07:10:32;;;;;;;;;;;;;;;;;;4983826;28;20389;-74
2023/11/25 07:12:59;;;;;;;;;;;;;;;;;;4992263;28;19925;-74
2023/11/25 07:15:26;;;;;;;;;;;;;;;;;;4995665;28;19930;-74
2023/11/25 07:17:53;;;;;;;;;;;;;;;;;;4995610;28;20020;-76
2023/11/25 07:20:21;;;;;;;;;;;;;;;;;;4981513;28;19933;-78
2023/11/25 07:22:48;;;;;;;;;;;;;;;;;;4987576;28;19965;-76
2023/11/25 07:25:15;;;;;;;;;;;;;;;;;;4999619;28;19940;-74
2023/11/25 07:27:44;;;;;;;;;;;;;;;;;;4999195;28;19984;-75
2023/11/25 07:30:11;;;;;;;;;;;;;;;;;;5004188;28;19926;-76
2023/11/25 07:32:38;;;;;;;;;;;;;;;;;;4996307;28;19958;-74
2023/11/25 07:35:07;;;;;;;;;;;;;;;;;;5008372;28;19925;-75
2023/11/25 07:37:34;;;;;;;;;;;;;;;;;;4993100;28;19980;-75
2023/11/25 07:40:02;;;;;;;;;;;;;;;;;;4994895;28;19969;-74
2023/11/25 07:42:29;;;;;;;;;;;;;;;;;;4996125;28;19933;-76
2023/11/25 07:44:56;;;;;;;;;;;;;;;;;;4999036;28;20020;-75
2023/11/25 07:47:23;;;;;;;;;;;;;;;;;;4990399;28;19993;-75
2023/11/25 07:49:50;;;;;;;;;;;;;;;;;;5004165;28;19929;-74
2023/11/25 07:52:17;;;;;;;;;;;;;;;;;;4990535;28;19961;-75
2023/11/25 07:54:45;;;;;;;;;;;;;;;;;;4979013;28;19930;-76
2023/11/25 07:57:12;;;;;;;;;;;;;;;;;;4998918;28;19926;-75
2023/11/25 07:59:39;;;;;;;;;;;;;;;;;;4997691;28;20357;-76
2023/11/25 08:02:06;;;;;;;;;;;;;;;;;;4990300;28;19926;-75
2023/11/25 08:04:33;;;;;;;;;;;;;;;;;;4989893;28;20006;-77
2023/11/25 08:07:00;;;;;;;;;;;;;;;;;;4994979;28;19934;-74
2023/11/25 08:09:27;;;;;;;;;;;;;;;;;;4998662;28;20463;-73
2023/11/25 08:11:54;;;;;;;;;;;;;;;;;;4992856;28;20544;-71
2023/11/25 08:14:21;;;;;;;;;;;;;;;;;;4984422;28;20021;-70
2023/11/25 08:16:49;;;;;;;;;;;;;;;;;;4987011;28;19926;-71
2023/11/25 08:19:21;;;;;;;;;;;;;;;;;;4976828;28;19940;-71
2023/11/25 08:21:48;;;;;;;;;;;;;;;;;;4985868;28;20423;-70
2023/11/25 08:24:15;;;;;;;;;;;;;;;;;;4980021;28;19930;-70
2023/11/25 08:26:42;;;;;;;;;;;;;;;;;;4987821;28;20523;-71
2023/11/25 08:29:09;;;;;;;;;;;;;;;;;;4981825;28;19995;-71
2023/11/25 08:31:36;;;;;;;;;;;;;;;;;;4986432;28;20012;-71
2023/11/25 08:34:04;;;;;;;;;;;;;;;;;;5001975;28;20401;-68
2023/11/25 08:36:31;;;;;;;;;;;;;;;;;;4987954;28;19932;-69
2023/11/25 08:39:01;;;;;;;;;;;;;;;;;;4989065;28;20304;-70
2023/11/25 08:41:29;;;;;;;;;;;;;;;;;;4996614;28;20438;-70
2023/11/25 08:43:59;;;;;;;;;;;;;;;;;;4999515;28;19930;-70
2023/11/25 08:46:26;;;;;;;;;;;;;;;;;;4983580;28;20333;-69
2023/11/25 08:48:53;;;;;;;;;;;;;;;;;;4992656;28;19926;-70
2023/11/25 08:51:20;;;;;;;;;;;;;;;;;;4991925;28;20389;-69
2023/11/25 08:53:49;;;;;;;;;;;;;;;;;;4981464;28;20416;-73
2023/11/25 08:56:17;;;;;;;;;;;;;;;;;;4973476;28;19925;-71
2023/11/25 08:58:45;;;;;;;;;;;;;;;;;;4991873;28;19965;-72
2023/11/25 09:01:12;;;;;;;;;;;;;;;;;;4986884;28;19926;-72
2023/11/25 09:03:39;;;;;;;;;;;;;;;;;;4984369;28;19926;-68
2023/11/25 09:06:07;;;;;;;;;;;;;;;;;;4991657;28;19934;-69
2023/11/25 09:08:35;;;;;;;;;;;;;;;;;;4990264;28;19968;-71
2023/11/25 09:11:02;;;;;;;;;;;;;;;;;;4989998;28;19965;-69
2023/11/25 09:13:30;;;;;;;;;;;;;;;;;;4990003;28;19929;-68
2023/11/25 09:15:57;;;;;;;;;;;;;;;;;;4991428;28;19926;-70
2023/11/25 09:18:25;;;;;;;;;;;;;;;;;;4980913;28;19968;-69
2023/11/25 09:20:52;;;;;;;;;;;;;;;;;;4985077;28;20025;-69
2023/11/25 09:23:19;;;;;;;;;;;;;;;;;;4988334;28;20463;-69
2023/11/25 09:25:46;;;;;;;;;;;;;;;;;;4989182;28;19965;-69
2023/11/25 09:28:14;;;;;;;;;;;;;;;;;;4986234;28;20072;-69
2023/11/25 09:30:42;;;;;;;;;;;;;;;;;;4983128;28;19930;-70
2023/11/25 09:33:09;;;;;;;;;;;;;;;;;;4979442;28;19926;-68
2023/11/25 09:35:36;;;;;;;;;;;;;;;;;;4986181;28;20024;-69
2023/11/25 09:38:03;;;;;;;;;;;;;;;;;;4986859;28;20025;-69
2023/11/25 09:40:30;;;;;;;;;;;;;;;;;;4981475;28;20021;-68
2023/11/25 09:42:57;;;;;;;;;;;;;;;;;;4988895;28;20009;-68
2023/11/25 09:45:29;;;;;;;;;;;;;;;;;;4989248;28;19976;-69
2023/11/25 09:47:59;;;;;;;;;;;;;;;;;;4986586;28;19944;-69
2023/11/25 09:50:26;;;;;;;;;;;;;;;;;;4987763;28;19933;-70
2023/11/25 09:52:53;;;;;;;;;;;;;;;;;;4992056;28;19981;-69
2023/11/25 09:55:22;;;;;;;;;;;;;;;;;;4988758;28;19926;-68
2023/11/25 09:57:50;;;;;;;;;;;;;;;;;;4995137;28;19925;-68
2023/11/25 10:00:17;;;;;;;;;;;;;;;;;;4993142;28;19925;-69
2023/11/25 10:02:44;;;;;;;;;;;;;;;;;;4998461;28;20025;-68
2023/11/25 10:05:13;;;;;;;;;;;;;;;;;;4997158;28;19926;-69
2023/11/25 10:07:40;;;;;;;;;;;;;;;;;;4993226;28;19934;-69
2023/11/25 10:10:07;;;;;;;;;;;;;;;;;;4982009;28;20389;-68
2023/11/25 10:12:34;;;;;;;;;;;;;;;;;;5003201;28;19926;-68
2023/11/25 10:15:02;;;;;;;;;;;;;;;;;;5003479;28;20024;-70
2023/11/25 10:17:29;;;;;;;;;;;;;;;;;;4988228;28;19933;-70
2023/11/25 10:19:56;;;;;;;;;;;;;;;;;;4993257;28;19934;-70
2023/11/25 10:22:25;;;;;;;;;;;;;;;;;;4986904;28;20444;-70
2023/11/25 10:24:53;;;;;;;;;;;;;;;;;;4992788;28;20300;-70
2023/11/25 10:27:21;;;;;;;;;;;;;;;;;;5004789;28;19972;-69
2023/11/25 10:29:49;;;;;;;;;;;;;;;;;;4988324;28;19926;-69
2023/11/25 10:32:16;;;;;;;;;;;;;;;;;;5005240;28;19926;-69
2023/11/25 10:34:43;;;;;;;;;;;;;;;;;;5002451;28;20008;-69
2023/11/25 10:37:10;;;;;;;;;;;;;;;;;;4996999;28;20459;-69
2023/11/25 10:39:37;;;;;;;;;;;;;;;;;;4996363;28;19925;-70
2023/11/25 10:42:07;;;;;;;;;;;;;;;;;;4991603;28;20015;-70
2023/11/25 10:44:34;;;;;;;;;;;;;;;;;;4994554;28;20300;-69
2023/11/25 10:47:02;;;;;;;;;;;;;;;;;;4996595;28;20024;-70
2023/11/25 10:49:30;;;;;;;;;;;;;;;;;;4998733;28;19925;-69
2023/11/25 10:51:58;;;;;;;;;;;;;;;;;;4989103;28;20134;-70
2023/11/25 10:54:28;;;;;;;;;;;;;;;;;;4993103;28;20415;-70
2023/11/25 10:56:56;;;;;;;;;;;;;;;;;;4986978;28;19926;-69
2023/11/25 10:59:23;;;;;;;;;;;;;;;;;;4989544;28;19926;-69
2023/11/25 11:01:50;;;;;;;;;;;;;;;;;;5001297;28;19968;-70
2023/11/25 11:04:18;;;;;;;;;;;;;;;;;;4988159;28;19964;-70
2023/11/25 11:06:45;;;;;;;;;;;;;;;;;;4992911;28;19948;-69
2023/11/25 11:09:16;;;;;;;;;;;;;;;;;;4978576;28;19932;-68
2023/11/25 11:11:46;;;;;;;;;;;;;;;;;;4990232;28;19925;-69
2023/11/25 11:14:13;;;;;;;;;;;;;;;;;;4992732;28;19981;-69
2023/11/25 11:16:40;;;;;;;;;;;;;;;;;;4988295;28;20381;-69
2023/11/25 11:19:07;;;;;;;;;;;;;;;;;;4992725;28;20020;-70
2023/11/25 11:21:34;;;;;;;;;;;;;;;;;;4984426;28;19925;-69
2023/11/25 11:24:01;;;;;;;;;;;;;;;;;;4991582;28;20028;-69
2023/11/25 11:26:28;;;;;;;;;;;;;;;;;;4981917;28;19961;-69
2023/11/25 11:28:55;;;;;;;;;;;;;;;;;;4991527;28;19926;-70
2023/11/25 11:31:22;;;;;;;;;;;;;;;;;;4987309;28;20355;-69
2023/11/25 11:33:49;;;;;;;;;;;;;;;;;;4977777;28;19970;-68
2023/11/25 11:36:16;;;;;;;;;;;;;;;;;;4989521;28;20049;-69
2023/11/25 11:38:43;;;;;;;;;;;;;;;;;;5003159;28;19969;-69
2023/11/25 11:41:10;;;;;;;;;;;;;;;;;;4988542;28;20021;-69
2023/11/25 11:43:38;;;;;;;;;;;;;;;;;;4976508;28;20020;-69
2023/11/25 11:46:05;;;;;;;;;;;;;;;;;;4979861;28;19926;-69
2023/11/25 11:48:32;;;;;;;;;;;;;;;;;;4988151;28;20442;-69
2023/11/25 11:50:59;;;;;;;;;;;;;;;;;;4975196;28;22216;-68
2023/11/25 11:53:26;;;;;;;;;;;;;;;;;;4974822;28;20043;-68
2023/11/25 11:55:53;;;;;;;;;;;;;;;;;;4991143;28;19980;-68
2023/11/25 11:58:20;;;;;;;;;;;;;;;;;;5000788;28;20024;-68
2023/11/25 12:00:47;;;;;;;;;;;;;;;;;;4993700;28;19929;-68
2023/11/25 12:03:14;;;;;;;;;;;;;;;;;;4984499;28;19926;-68
2023/11/25 12:05:41;;;;;;;;;;;;;;;;;;4974220;28;20382;-68
2023/11/25 12:08:08;;;;;;;;;;;;;;;;;;4982163;28;19965;-68
2023/11/25 12:10:35;;;;;;;;;;;;;;;;;;4992244;28;19930;-68
2023/11/25 12:13:02;;;;;;;;;;;;;;;;;;4984320;28;19926;-68
2023/11/25 12:15:30;;;;;;;;;;;;;;;;;;4977370;28;19938;-69
2023/11/25 12:17:57;;;;;;;;;;;;;;;;;;4986269;28;20025;-68
2023/11/25 12:20:26;;;;;;;;;;;;;;;;;;4991825;28;19926;-68
2023/11/25 12:22:53;;;;;;;;;;;;;;;;;;4987462;28;20091;-68
2023/11/25 12:25:20;;;;;;;;;;;;;;;;;;4993132;28;19977;-68
2023/11/25 12:27:47;;;;;;;;;;;;;;;;;;4982749;28;20008;-68
2023/11/25 12:30:14;;;;;;;;;;;;;;;;;;4989374;28;19926;-69
2023/11/25 12:32:42;;;;;;;;;;;;;;;;;;4985114;28;20012;-69
2023/11/25 12:35:11;;;;;;;;;;;;;;;;;;5005861;28;19938;-69
2023/11/25 12:37:40;;;;;;;;;;;;;;;;;;4989212;28;19948;-69
2023/11/25 12:40:08;;;;;;;;;;;;;;;;;;5000099;28;19926;-69
2023/11/25 12:42:35;;;;;;;;;;;;;;;;;;5005722;28;19925;-69
2023/11/25 12:45:03;;;;;;;;;;;;;;;;;;4995160;28;19926;-70
2023/11/25 12:47:30;;;;;;;;;;;;;;;;;;4995860;28;19926;-69
2023/11/25 12:49:57;;;;;;;;;;;;;;;;;;5005940;28;20020;-68
2023/11/25 12:52:25;;;;;;;;;;;;;;;;;;5000707;28;19926;-68
2023/11/25 12:54:52;;;;;;;;;;;;;;;;;;5011718;28;20340;-69
2023/11/25 12:57:20;;;;;;;;;;;;;;;;;;4998842;28;19973;-69
2023/11/25 12:59:47;;;;;;;;;;;;;;;;;;4991900;28;19932;-69
2023/11/25 13:02:17;;;;;;;;;;;;;;;;;;5008656;28;19976;-69
2023/11/25 13:04:45;;;;;;;;;;;;;;;;;;4997440;28;20394;-69
2023/11/25 13:07:12;;;;;;;;;;;;;;;;;;5002249;28;19925;-69
2023/11/25 13:09:39;;;;;;;;;;;;;;;;;;4993165;28;19948;-69
2023/11/25 13:12:06;;;;;;;;;;;;;;;;;;5000878;28;19935;-72
2023/11/25 13:14:33;;;;;;;;;;;;;;;;;;5008754;28;19933;-69
2023/11/25 13:17:01;;;;;;;;;;;;;;;;;;4978812;28;19930;-69
2023/11/25 13:19:28;;;;;;;;;;;;;;;;;;4987423;28;19929;-70
2023/11/25 13:21:55;;;;;;;;;;;;;;;;;;4978179;28;19926;-69
2023/11/25 13:24:22;;;;;;;;;;;;;;;;;;4982144;28;20396;-69
2023/11/25 13:26:49;;;;;;;;;;;;;;;;;;5000531;28;20044;-69
2023/11/25 13:29:16;;;;;;;;;;;;;;;;;;4982873;28;19930;-69
2023/11/25 13:31:43;;;;;;;;;;;;;;;;;;4987784;28;19925;-69
2023/11/25 13:34:11;;;;;;;;;;;;;;;;;;5001022;28;20016;-70
2023/11/25 13:36:40;;;;;;;;;;;;;;;;;;4995946;28;19980;-69
2023/11/25 13:39:08;;;;;;;;;;;;;;;;;;4997767;28;20292;-69
2023/11/25 13:41:40;;;;;;;;;;;;;;;;;;4984751;28;20013;-70
2023/11/25 13:44:07;;;;;;;;;;;;;;;;;;4974160;28;19937;-69
2023/11/25 13:46:35;;;;;;;;;;;;;;;;;;4987992;28;19925;-70
2023/11/25 13:49:02;;;;;;;;;;;;;;;;;;4982331;28;20447;-69
2023/11/25 13:51:30;;;;;;;;;;;;;;;;;;4985968;28;20389;-69
2023/11/25 13:53:57;;;;;;;;;;;;;;;;;;4980980;28;20441;-75
2023/11/25 13:56:24;;;;;;;;;;;;;;;;;;4986976;28;19926;-71
2023/11/25 13:58:52;;;;;;;;;;;;;;;;;;4986399;28;19930;-74
2023/11/25 14:01:21;;;;;;;;;;;;;;;;;;4983635;28;19926;-72
2023/11/25 14:03:49;;;;;;;;;;;;;;;;;;4996152;28;20394;-73
2023/11/25 14:06:16;;;;;;;;;;;;;;;;;;5008773;28;19925;-74
2023/11/25 14:08:43;;;;;;;;;;;;;;;;;;4995048;28;19988;-71
2023/11/25 14:11:10;;;;;;;;;;;;;;;;;;4982158;28;20015;-72
2023/11/25 14:13:38;;;;;;;;;;;;;;;;;;4984740;28;20401;-72
2023/11/25 14:16:06;;;;;;;;;;;;;;;;;;4990096;28;19926;-73
2023/11/25 14:18:33;;;;;;;;;;;;;;;;;;5003896;28;19926;-72
2023/11/25 14:21:00;;;;;;;;;;;;;;;;;;5002994;28;19949;-71
2023/11/25 14:23:29;;;;;;;;;;;;;;;;;;4987638;28;20711;-68
2023/11/25 14:25:59;;;;;;;;;;;;;;;;;;4989391;28;19933;-68
2023/11/25 14:28:26;;;;;;;;;;;;;;;;;;4984655;28;19926;-69
2023/11/25 14:30:53;;;;;;;;;;;;;;;;;;4984665;28;20009;-67
2023/11/25 14:33:20;;;;;;;;;;;;;;;;;;4988244;28;19925;-67
2023/11/25 14:35:47;;;;;;;;;;;;;;;;;;5002829;28;19936;-68
2023/11/25 14:38:14;;;;;;;;;;;;;;;;;;5002014;28;19926;-67
2023/11/25 14:40:42;;;;;;;;;;;;;;;;;;5000961;28;19933;-69
2023/11/25 14:43:11;;;;;;;;;;;;;;;;;;5009917;28;19930;-69
2023/11/25 14:45:39;;;;;;;;;;;;;;;;;;5000233;28;20266;-66
2023/11/25 14:48:07;;;;;;;;;;;;;;;;;;5012435;28;20428;-67
2023/11/25 14:50:40;;;;;;;;;;;;;;;;;;4992383;28;19925;-66
2023/11/25 14:53:07;;;;;;;;;;;;;;;;;;4992964;28;19926;-65
2023/11/25 14:55:34;;;;;;;;;;;;;;;;;;4981712;28;19930;-66
2023/11/25 14:58:02;;;;;;;;;;;;;;;;;;4988833;28;19933;-66
2023/11/25 15:00:29;;;;;;;;;;;;;;;;;;4990060;28;20321;-67
2023/11/25 15:02:57;;;;;;;;;;;;;;;;;;4980512;28;20292;-67
2023/11/25 15:05:24;;;;;;;;;;;;;;;;;;4988282;28;19936;-67
2023/11/25 15:07:52;;;;;;;;;;;;;;;;;;4992904;28;20024;-67
2023/11/25 15:10:25;;;;;;;;;;;;;;;;;;4985503;28;20016;-67
2023/11/25 15:12:52;;;;;;;;;;;;;;;;;;4988312;28;19926;-67
2023/11/25 15:15:20;;;;;;;;;;;;;;;;;;4978840;28;20020;-67
2023/11/25 15:17:47;;;;;;;;;;;;;;;;;;4980780;28;19928;-66
2023/11/25 15:20:14;;;;;;;;;;;;;;;;;;4987502;28;19961;-67
2023/11/25 15:22:41;;;;;;;;;;;;;;;;;;4994697;28;20381;-65
2023/11/25 15:25:08;;;;;;;;;;;;;;;;;;4989233;28;19980;-66
2023/11/25 15:27:35;;;;;;;;;;;;;;;;;;4991121;28;19933;-67
2023/11/25 15:30:05;;;;;;;;;;;;;;;;;;4992877;28;19926;-67
2023/11/25 15:32:32;;;;;;;;;;;;;;;;;;4996178;28;19934;-66
2023/11/25 15:34:59;;;;;;;;;;;;;;;;;;4993013;28;20012;-66
2023/11/25 15:37:26;;;;;;;;;;;;;;;;;;4992928;28;19981;-66
2023/11/25 15:39:53;;;;;;;;;;;;;;;;;;4988479;28;20403;-66
2023/11/25 15:42:20;;;;;;;;;;;;;;;;;;4988929;28;19980;-66
2023/11/25 15:44:47;;;;;;;;;;;;;;;;;;4982489;28;19940;-66
2023/11/25 15:47:14;;;;;;;;;;;;;;;;;;4997861;28;19926;-66
2023/11/25 15:49:41;;;;;;;;;;;;;;;;;;4990269;28;19925;-66
2023/11/25 15:52:08;;;;;;;;;;;;;;;;;;4993928;28;19970;-65
2023/11/25 15:54:35;;;;;;;;;;;;;;;;;;4983706;28;19934;-66
2023/11/25 15:57:02;;;;;;;;;;;;;;;;;;4984888;28;20028;-66
2023/11/25 15:59:30;;;;;;;;;;;;;;;;;;4991394;28;19969;-65
2023/11/25 16:01:57;;;;;;;;;;;;;;;;;;4988837;28;20622;-66
2023/11/25 16:04:24;;;;;;;;;;;;;;;;;;4984988;28;19926;-72
2023/11/25 16:06:51;;;;;;;;;;;;;;;;;;4990750;28;19929;-71
2023/11/25 16:09:18;;;;;;;;;;;;;;;;;;4985753;28;19937;-70
2023/11/25 16:11:45;;;;;;;;;;;;;;;;;;4982866;28;19929;-71
2023/11/25 16:14:12;;;;;;;;;;;;;;;;;;4978388;28;19926;-72
2023/11/25 16:16:40;;;;;;;;;;;;;;;;;;4986232;28;19926;-71
2023/11/25 16:19:09;;;;;;;;;;;;;;;;;;4977960;28;19969;-71
2023/11/25 16:21:37;;;;;;;;;;;;;;;;;;4985993;28;19940;-71
2023/11/25 16:24:05;;;;;;;;;;;;;;;;;;4978503;28;20024;-71
2023/11/25 16:26:32;;;;;;;;;;;;;;;;;;4961142;28;19934;-71
2023/11/25 16:28:59;;;;;;;;;;;;;;;;;;4973961;28;20630;-70
2023/11/25 16:31:27;;;;;;;;;;;;;;;;;;4971079;28;19940;-69
2023/11/25 16:33:55;;;;;;;;;;;;;;;;;;4962965;28;19934;-63
2023/11/25 16:36:22;;;;;;;;;;;;;;;;;;4964616;28;20309;-65
2023/11/25 16:38:49;;;;;;;;;;;;;;;;;;4988393;28;19965;-64
2023/11/25 16:41:16;;;;;;;;;;;;;;;;;;4979281;28;19937;-63
2023/11/25 16:43:42;;;;;;;;;;;;;;;;;;4980116;28;20460;-65
2023/11/25 16:48:54;;;;;;;;;;;;;;;;;;4961354;28;19960;-62
2023/11/25 16:51:21;;;;;;;;;;;;;;;;;;4974739;28;19938;-75